sensor_id;sensor_type;location;lat;lon;timestamp;P1;durP1;ratioP1;P2;durP2;ratioP2
32505;SDS011;18955;51.224;8.482;2023-09-08T00:01:59;5.80;;;5.00;;
32505;SDS011;18955;51.224;8.482;2023-09-08T00:04:25;5.82;;;4.80;;
32505;SDS011;18955;51.224;8.482;2023-09-08T00:06:51;6.32;;;3.75;;
32505;SDS011;18955;51.224;8.482;2023-09-08T00:09:17;7.57;;;5.10;;
32505;SDS011;18955;51.224;8.482;2023-09-08T00:11:44;12.23;;;5.20;;
32505;SDS011;18955;51.224;8.482;2023-09-08T00:14:10;7.60;;;5.03;;
32505;SDS011;18955;51.224;8.482;2023-09-08T00:16:36;9.48;;;5.57;;
32505;SDS011;18955;51.224;8.482;2023-09-08T00:19:04;7.22;;;4.88;;
32505;SDS011;18955;51.224;8.482;2023-09-08T00:21:30;8.57;;;4.85;;
32505;SDS011;18955;51.224;8.482;2023-09-08T00:23:57;9.50;;;5.18;;
32505;SDS011;18955;51.224;8.482;2023-09-08T00:26:23;7.82;;;5.63;;
32505;SDS011;18955;51.224;8.482;2023-09-08T00:28:50;7.22;;;5.35;;
32505;SDS011;18955;51.224;8.482;2023-09-08T00:31:16;7.70;;;5.32;;
32505;SDS011;18955;51.224;8.482;2023-09-08T00:33:43;9.07;;;4.72;;
32505;SDS011;18955;51.224;8.482;2023-09-08T00:36:10;12.27;;;5.10;;
32505;SDS011;18955;51.224;8.482;2023-09-08T00:38:36;5.53;;;4.75;;
32505;SDS011;18955;51.224;8.482;2023-09-08T00:41:04;8.85;;;5.35;;
32505;SDS011;18955;51.224;8.482;2023-09-08T00:43:30;8.27;;;5.28;;
32505;SDS011;18955;51.224;8.482;2023-09-08T00:45:57;3.65;;;3.35;;
32505;SDS011;18955;51.224;8.482;2023-09-08T00:48:24;6.60;;;5.25;;
32505;SDS011;18955;51.224;8.482;2023-09-08T00:50:51;6.55;;;4.60;;
32505;SDS011;18955;51.224;8.482;2023-09-08T00:53:17;5.90;;;4.80;;
32505;SDS011;18955;51.224;8.482;2023-09-08T00:55:44;5.15;;;4.55;;
32505;SDS011;18955;51.224;8.482;2023-09-08T00:58:11;8.27;;;5.32;;
32505;SDS011;18955;51.224;8.482;2023-09-08T01:03:04;8.18;;;4.90;;
32505;SDS011;18955;51.224;8.482;2023-09-08T01:05:31;8.57;;;5.45;;
32505;SDS011;18955;51.224;8.482;2023-09-08T01:07:57;5.93;;;5.03;;
32505;SDS011;18955;51.224;8.482;2023-09-08T01:10:26;8.25;;;5.13;;
32505;SDS011;18955;51.224;8.482;2023-09-08T01:12:53;11.43;;;5.05;;
32505;SDS011;18955;51.224;8.482;2023-09-08T01:15:19;7.40;;;5.30;;
32505;SDS011;18955;51.224;8.482;2023-09-08T01:17:45;5.43;;;4.93;;
32505;SDS011;18955;51.224;8.482;2023-09-08T01:26:31;7.07;;;4.57;;
32505;SDS011;18955;51.224;8.482;2023-09-08T01:28:36;6.75;;;5.20;;
32505;SDS011;18955;51.224;8.482;2023-09-08T01:31:05;6.03;;;5.20;;
32505;SDS011;18955;51.224;8.482;2023-09-08T01:33:31;8.95;;;5.05;;
32505;SDS011;18955;51.224;8.482;2023-09-08T01:35:57;8.10;;;5.22;;
32505;SDS011;18955;51.224;8.482;2023-09-08T01:38:25;7.47;;;4.90;;
32505;SDS011;18955;51.224;8.482;2023-09-08T01:40:52;9.02;;;5.00;;
32505;SDS011;18955;51.224;8.482;2023-09-08T01:43:18;10.50;;;5.28;;
32505;SDS011;18955;51.224;8.482;2023-09-08T01:45:44;12.13;;;5.13;;
32505;SDS011;18955;51.224;8.482;2023-09-08T01:48:10;6.93;;;4.75;;
32505;SDS011;18955;51.224;8.482;2023-09-08T01:50:37;8.52;;;5.35;;
32505;SDS011;18955;51.224;8.482;2023-09-08T01:53:03;8.68;;;5.78;;
32505;SDS011;18955;51.224;8.482;2023-09-08T01:55:29;8.70;;;5.60;;
32505;SDS011;18955;51.224;8.482;2023-09-08T01:57:56;6.97;;;5.25;;
32505;SDS011;18955;51.224;8.482;2023-09-08T02:00:22;11.52;;;5.28;;
32505;SDS011;18955;51.224;8.482;2023-09-08T02:02:50;8.32;;;4.80;;
32505;SDS011;18955;51.224;8.482;2023-09-08T02:05:16;7.65;;;5.03;;
32505;SDS011;18955;51.224;8.482;2023-09-08T02:07:42;7.60;;;4.68;;
32505;SDS011;18955;51.224;8.482;2023-09-08T02:10:09;8.48;;;4.82;;
32505;SDS011;18955;51.224;8.482;2023-09-08T02:12:36;7.70;;;4.80;;
32505;SDS011;18955;51.224;8.482;2023-09-08T02:15:02;9.13;;;5.43;;
32505;SDS011;18955;51.224;8.482;2023-09-08T02:17:30;5.85;;;5.22;;
32505;SDS011;18955;51.224;8.482;2023-09-08T02:19:56;7.00;;;5.00;;
32505;SDS011;18955;51.224;8.482;2023-09-08T02:22:22;6.70;;;5.28;;
32505;SDS011;18955;51.224;8.482;2023-09-08T02:24:49;11.13;;;5.70;;
32505;SDS011;18955;51.224;8.482;2023-09-08T02:27:18;7.22;;;5.30;;
32505;SDS011;18955;51.224;8.482;2023-09-08T02:29:47;12.10;;;5.07;;
32505;SDS011;18955;51.224;8.482;2023-09-08T02:32:13;7.32;;;5.22;;
32505;SDS011;18955;51.224;8.482;2023-09-08T02:34:40;10.45;;;5.00;;
32505;SDS011;18955;51.224;8.482;2023-09-08T02:37:08;8.35;;;4.65;;
32505;SDS011;18955;51.224;8.482;2023-09-08T02:39:35;14.80;;;4.82;;
32505;SDS011;18955;51.224;8.482;2023-09-08T02:42:03;8.13;;;4.68;;
32505;SDS011;18955;51.224;8.482;2023-09-08T02:44:31;5.20;;;4.70;;
32505;SDS011;18955;51.224;8.482;2023-09-08T02:46:58;6.40;;;4.93;;
32505;SDS011;18955;51.224;8.482;2023-09-08T02:49:24;10.45;;;5.35;;
32505;SDS011;18955;51.224;8.482;2023-09-08T02:51:51;8.68;;;5.60;;
32505;SDS011;18955;51.224;8.482;2023-09-08T02:54:17;6.95;;;3.95;;
32505;SDS011;18955;51.224;8.482;2023-09-08T02:56:43;6.30;;;4.70;;
32505;SDS011;18955;51.224;8.482;2023-09-08T02:59:09;9.60;;;5.00;;
32505;SDS011;18955;51.224;8.482;2023-09-08T03:01:36;6.55;;;5.13;;
32505;SDS011;18955;51.224;8.482;2023-09-08T03:04:03;7.45;;;5.13;;
32505;SDS011;18955;51.224;8.482;2023-09-08T03:06:30;8.43;;;5.43;;
32505;SDS011;18955;51.224;8.482;2023-09-08T03:08:58;7.38;;;4.80;;
32505;SDS011;18955;51.224;8.482;2023-09-08T03:11:24;6.88;;;4.72;;
32505;SDS011;18955;51.224;8.482;2023-09-08T03:13:50;8.07;;;3.97;;
32505;SDS011;18955;51.224;8.482;2023-09-08T03:16:17;11.20;;;4.60;;
32505;SDS011;18955;51.224;8.482;2023-09-08T03:18:43;12.63;;;4.97;;
32505;SDS011;18955;51.224;8.482;2023-09-08T03:21:09;10.45;;;5.07;;
32505;SDS011;18955;51.224;8.482;2023-09-08T03:23:41;5.70;;;4.75;;
32505;SDS011;18955;51.224;8.482;2023-09-08T03:26:08;6.03;;;4.88;;
32505;SDS011;18955;51.224;8.482;2023-09-08T03:28:36;5.45;;;4.82;;
32505;SDS011;18955;51.224;8.482;2023-09-08T03:31:04;7.80;;;4.38;;
32505;SDS011;18955;51.224;8.482;2023-09-08T03:33:36;6.45;;;5.63;;
32505;SDS011;18955;51.224;8.482;2023-09-08T03:36:04;8.57;;;5.10;;
32505;SDS011;18955;51.224;8.482;2023-09-08T03:38:30;8.35;;;4.90;;
32505;SDS011;18955;51.224;8.482;2023-09-08T03:40:56;5.50;;;4.38;;
32505;SDS011;18955;51.224;8.482;2023-09-08T03:43:24;8.20;;;4.65;;
32505;SDS011;18955;51.224;8.482;2023-09-08T03:45:50;9.45;;;4.80;;
32505;SDS011;18955;51.224;8.482;2023-09-08T03:48:16;8.60;;;4.93;;
32505;SDS011;18955;51.224;8.482;2023-09-08T03:50:42;9.65;;;4.85;;
32505;SDS011;18955;51.224;8.482;2023-09-08T03:53:11;8.27;;;4.93;;
32505;SDS011;18955;51.224;8.482;2023-09-08T03:58:04;6.63;;;5.00;;
32505;SDS011;18955;51.224;8.482;2023-09-08T04:00:30;5.30;;;3.53;;
32505;SDS011;18955;51.224;8.482;2023-09-08T04:02:56;8.60;;;5.53;;
32505;SDS011;18955;51.224;8.482;2023-09-08T04:05:23;6.03;;;4.50;;
32505;SDS011;18955;51.224;8.482;2023-09-08T04:07:49;7.28;;;4.95;;
32505;SDS011;18955;51.224;8.482;2023-09-08T04:10:17;6.85;;;4.45;;
32505;SDS011;18955;51.224;8.482;2023-09-08T04:12:43;5.53;;;4.72;;
32505;SDS011;18955;51.224;8.482;2023-09-08T04:15:10;13.57;;;4.40;;
32505;SDS011;18955;51.224;8.482;2023-09-08T04:17:37;8.07;;;4.70;;
32505;SDS011;18955;51.224;8.482;2023-09-08T04:20:04;6.55;;;4.72;;
32505;SDS011;18955;51.224;8.482;2023-09-08T04:22:31;10.70;;;5.07;;
32505;SDS011;18955;51.224;8.482;2023-09-08T04:24:58;6.80;;;4.82;;
32505;SDS011;18955;51.224;8.482;2023-09-08T04:27:24;6.30;;;5.00;;
32505;SDS011;18955;51.224;8.482;2023-09-08T04:29:51;6.30;;;4.80;;
32505;SDS011;18955;51.224;8.482;2023-09-08T04:32:17;5.78;;;3.42;;
32505;SDS011;18955;51.224;8.482;2023-09-08T04:34:44;7.20;;;3.15;;
32505;SDS011;18955;51.224;8.482;2023-09-08T04:37:10;11.50;;;4.68;;
32505;SDS011;18955;51.224;8.482;2023-09-08T04:39:36;12.98;;;5.70;;
32505;SDS011;18955;51.224;8.482;2023-09-08T04:42:03;9.77;;;4.97;;
32505;SDS011;18955;51.224;8.482;2023-09-08T04:44:29;9.25;;;5.40;;
32505;SDS011;18955;51.224;8.482;2023-09-08T04:46:56;6.68;;;4.70;;
32505;SDS011;18955;51.224;8.482;2023-09-08T04:49:22;11.80;;;5.05;;
32505;SDS011;18955;51.224;8.482;2023-09-08T04:51:48;8.30;;;5.72;;
32505;SDS011;18955;51.224;8.482;2023-09-08T04:54:17;6.22;;;4.75;;
32505;SDS011;18955;51.224;8.482;2023-09-08T04:56:46;9.98;;;5.20;;
32505;SDS011;18955;51.224;8.482;2023-09-08T04:59:13;6.65;;;5.03;;
32505;SDS011;18955;51.224;8.482;2023-09-08T05:01:39;11.82;;;5.20;;
32505;SDS011;18955;51.224;8.482;2023-09-08T05:04:07;7.38;;;5.03;;
32505;SDS011;18955;51.224;8.482;2023-09-08T05:06:33;9.02;;;5.32;;
32505;SDS011;18955;51.224;8.482;2023-09-08T05:08:59;6.18;;;4.75;;
32505;SDS011;18955;51.224;8.482;2023-09-08T05:11:28;13.98;;;5.70;;
32505;SDS011;18955;51.224;8.482;2023-09-08T05:13:54;12.00;;;5.10;;
32505;SDS011;18955;51.224;8.482;2023-09-08T05:16:20;8.85;;;5.25;;
32505;SDS011;18955;51.224;8.482;2023-09-08T05:19:03;11.35;;;4.88;;
32505;SDS011;18955;51.224;8.482;2023-09-08T05:21:33;6.25;;;4.97;;
32505;SDS011;18955;51.224;8.482;2023-09-08T05:24:00;10.85;;;4.97;;
32505;SDS011;18955;51.224;8.482;2023-09-08T05:26:26;8.52;;;4.10;;
32505;SDS011;18955;51.224;8.482;2023-09-08T05:28:53;14.10;;;5.20;;
32505;SDS011;18955;51.224;8.482;2023-09-08T05:31:19;15.20;;;5.60;;
32505;SDS011;18955;51.224;8.482;2023-09-08T05:33:45;9.70;;;5.18;;
32505;SDS011;18955;51.224;8.482;2023-09-08T05:36:12;15.38;;;5.47;;
32505;SDS011;18955;51.224;8.482;2023-09-08T05:38:39;28.52;;;5.90;;
32505;SDS011;18955;51.224;8.482;2023-09-08T05:41:05;22.70;;;5.75;;
32505;SDS011;18955;51.224;8.482;2023-09-08T05:43:31;29.52;;;6.38;;
32505;SDS011;18955;51.224;8.482;2023-09-08T05:45:58;31.20;;;6.20;;
32505;SDS011;18955;51.224;8.482;2023-09-08T05:48:24;25.60;;;5.88;;
32505;SDS011;18955;51.224;8.482;2023-09-08T05:50:51;38.97;;;6.75;;
32505;SDS011;18955;51.224;8.482;2023-09-08T05:53:17;18.67;;;5.55;;
32505;SDS011;18955;51.224;8.482;2023-09-08T05:55:44;35.75;;;6.00;;
32505;SDS011;18955;51.224;8.482;2023-09-08T05:58:10;30.65;;;6.82;;
32505;SDS011;18955;51.224;8.482;2023-09-08T06:00:36;26.08;;;7.65;;
32505;SDS011;18955;51.224;8.482;2023-09-08T06:03:03;21.85;;;5.95;;
32505;SDS011;18955;51.224;8.482;2023-09-08T06:05:30;34.42;;;6.85;;
32505;SDS011;18955;51.224;8.482;2023-09-08T06:07:56;31.90;;;6.47;;
32505;SDS011;18955;51.224;8.482;2023-09-08T06:10:23;33.70;;;6.57;;
32505;SDS011;18955;51.224;8.482;2023-09-08T06:12:49;37.05;;;6.90;;
32505;SDS011;18955;51.224;8.482;2023-09-08T06:15:17;30.65;;;6.38;;
32505;SDS011;18955;51.224;8.482;2023-09-08T06:17:43;34.50;;;6.35;;
32505;SDS011;18955;51.224;8.482;2023-09-08T06:20:10;29.48;;;6.40;;
32505;SDS011;18955;51.224;8.482;2023-09-08T06:22:37;32.28;;;6.63;;
32505;SDS011;18955;51.224;8.482;2023-09-08T06:25:04;56.83;;;8.68;;
32505;SDS011;18955;51.224;8.482;2023-09-08T06:27:31;69.82;;;7.97;;
32505;SDS011;18955;51.224;8.482;2023-09-08T06:29:57;47.83;;;7.75;;
32505;SDS011;18955;51.224;8.482;2023-09-08T06:32:23;25.88;;;5.38;;
32505;SDS011;18955;51.224;8.482;2023-09-08T06:34:51;38.63;;;7.95;;
32505;SDS011;18955;51.224;8.482;2023-09-08T06:37:17;36.80;;;7.95;;
32505;SDS011;18955;51.224;8.482;2023-09-08T06:39:43;33.05;;;6.72;;
32505;SDS011;18955;51.224;8.482;2023-09-08T06:42:10;30.75;;;6.85;;
32505;SDS011;18955;51.224;8.482;2023-09-08T06:44:40;28.92;;;7.28;;
32505;SDS011;18955;51.224;8.482;2023-09-08T06:47:06;21.23;;;7.40;;
32505;SDS011;18955;51.224;8.482;2023-09-08T06:49:33;25.20;;;7.88;;
32505;SDS011;18955;51.224;8.482;2023-09-08T06:52:00;25.60;;;6.72;;
32505;SDS011;18955;51.224;8.482;2023-09-08T06:54:26;28.77;;;7.95;;
32505;SDS011;18955;51.224;8.482;2023-09-08T06:56:52;34.40;;;7.05;;
32505;SDS011;18955;51.224;8.482;2023-09-08T06:59:19;37.75;;;7.40;;
32505;SDS011;18955;51.224;8.482;2023-09-08T07:01:45;46.58;;;7.55;;
32505;SDS011;18955;51.224;8.482;2023-09-08T07:04:12;47.05;;;8.20;;
32505;SDS011;18955;51.224;8.482;2023-09-08T07:09:07;71.40;;;8.32;;
32505;SDS011;18955;51.224;8.482;2023-09-08T07:11:34;61.00;;;9.25;;
32505;SDS011;18955;51.224;8.482;2023-09-08T07:14:00;57.15;;;9.15;;
32505;SDS011;18955;51.224;8.482;2023-09-08T07:16:31;57.40;;;8.57;;
32505;SDS011;18955;51.224;8.482;2023-09-08T07:18:57;42.65;;;8.07;;
32505;SDS011;18955;51.224;8.482;2023-09-08T07:21:25;29.70;;;6.63;;
32505;SDS011;18955;51.224;8.482;2023-09-08T07:23:52;37.10;;;7.53;;
32505;SDS011;18955;51.224;8.482;2023-09-08T07:26:19;30.92;;;7.53;;
32505;SDS011;18955;51.224;8.482;2023-09-08T07:33:43;31.05;;;6.40;;
32505;SDS011;18955;51.224;8.482;2023-09-08T07:36:10;42.40;;;8.07;;
32505;SDS011;18955;51.224;8.482;2023-09-08T07:38:38;42.58;;;7.75;;
32505;SDS011;18955;51.224;8.482;2023-09-08T07:41:06;21.45;;;6.80;;
32505;SDS011;18955;51.224;8.482;2023-09-08T07:43:32;22.75;;;7.72;;
32505;SDS011;18955;51.224;8.482;2023-09-08T07:45:59;16.35;;;6.70;;
32505;SDS011;18955;51.224;8.482;2023-09-08T07:48:25;24.83;;;6.38;;
32505;SDS011;18955;51.224;8.482;2023-09-08T07:50:51;31.70;;;7.80;;
32505;SDS011;18955;51.224;8.482;2023-09-08T07:53:17;24.45;;;7.63;;
32505;SDS011;18955;51.224;8.482;2023-09-08T07:55:44;24.35;;;6.50;;
32505;SDS011;18955;51.224;8.482;2023-09-08T07:58:10;20.83;;;6.60;;
32505;SDS011;18955;51.224;8.482;2023-09-08T08:00:36;17.77;;;6.90;;
32505;SDS011;18955;51.224;8.482;2023-09-08T08:03:02;28.20;;;7.78;;
32505;SDS011;18955;51.224;8.482;2023-09-08T08:05:29;18.75;;;6.90;;
32505;SDS011;18955;51.224;8.482;2023-09-08T08:07:55;23.60;;;6.63;;
32505;SDS011;18955;51.224;8.482;2023-09-08T08:10:21;24.65;;;6.68;;
32505;SDS011;18955;51.224;8.482;2023-09-08T08:12:47;22.75;;;7.28;;
32505;SDS011;18955;51.224;8.482;2023-09-08T08:15:14;19.65;;;6.75;;
32505;SDS011;18955;51.224;8.482;2023-09-08T08:17:40;26.85;;;7.15;;
32505;SDS011;18955;51.224;8.482;2023-09-08T08:20:06;53.67;;;8.73;;
32505;SDS011;18955;51.224;8.482;2023-09-08T08:22:45;36.08;;;7.43;;
32505;SDS011;18955;51.224;8.482;2023-09-08T08:25:12;24.55;;;7.38;;
32505;SDS011;18955;51.224;8.482;2023-09-08T08:27:39;30.30;;;7.18;;
32505;SDS011;18955;51.224;8.482;2023-09-08T08:30:06;15.65;;;6.78;;
32505;SDS011;18955;51.224;8.482;2023-09-08T08:32:33;19.75;;;6.43;;
32505;SDS011;18955;51.224;8.482;2023-09-08T08:34:59;12.82;;;7.28;;
32505;SDS011;18955;51.224;8.482;2023-09-08T08:37:25;14.60;;;6.75;;
32505;SDS011;18955;51.224;8.482;2023-09-08T08:39:52;17.67;;;7.30;;
32505;SDS011;18955;51.224;8.482;2023-09-08T08:42:18;30.13;;;7.13;;
32505;SDS011;18955;51.224;8.482;2023-09-08T08:44:48;21.08;;;6.93;;
32505;SDS011;18955;51.224;8.482;2023-09-08T08:47:15;50.63;;;7.82;;
32505;SDS011;18955;51.224;8.482;2023-09-08T08:49:43;30.02;;;7.15;;
32505;SDS011;18955;51.224;8.482;2023-09-08T08:52:12;9.80;;;5.93;;
32505;SDS011;18955;51.224;8.482;2023-09-08T08:54:40;11.35;;;5.70;;
32505;SDS011;18955;51.224;8.482;2023-09-08T08:57:08;25.38;;;5.85;;
32505;SDS011;18955;51.224;8.482;2023-09-08T08:59:34;17.00;;;5.50;;
32505;SDS011;18955;51.224;8.482;2023-09-08T09:02:02;26.17;;;6.07;;
32505;SDS011;18955;51.224;8.482;2023-09-08T09:04:30;23.17;;;5.72;;
32505;SDS011;18955;51.224;8.482;2023-09-08T09:06:57;23.80;;;6.13;;
32505;SDS011;18955;51.224;8.482;2023-09-08T09:11:50;30.17;;;6.00;;
32505;SDS011;18955;51.224;8.482;2023-09-08T09:14:16;31.73;;;6.43;;
32505;SDS011;18955;51.224;8.482;2023-09-08T09:16:43;17.10;;;5.75;;
32505;SDS011;18955;51.224;8.482;2023-09-08T09:19:17;22.08;;;5.40;;
32505;SDS011;18955;51.224;8.482;2023-09-08T09:21:53;9.70;;;5.68;;
32505;SDS011;18955;51.224;8.482;2023-09-08T09:24:39;16.75;;;6.15;;
32505;SDS011;18955;51.224;8.482;2023-09-08T09:27:09;20.60;;;5.75;;
32505;SDS011;18955;51.224;8.482;2023-09-08T09:29:45;17.38;;;5.63;;
32505;SDS011;18955;51.224;8.482;2023-09-08T09:32:14;20.65;;;5.95;;
32505;SDS011;18955;51.224;8.482;2023-09-08T09:34:53;14.30;;;6.28;;
32505;SDS011;18955;51.224;8.482;2023-09-08T09:37:20;17.20;;;5.45;;
32505;SDS011;18955;51.224;8.482;2023-09-08T09:42:16;13.27;;;5.28;;
32505;SDS011;18955;51.224;8.482;2023-09-08T09:44:43;21.60;;;5.80;;
32505;SDS011;18955;51.224;8.482;2023-09-08T09:47:09;14.77;;;5.82;;
32505;SDS011;18955;51.224;8.482;2023-09-08T09:49:43;13.18;;;6.15;;
32505;SDS011;18955;51.224;8.482;2023-09-08T09:52:14;10.90;;;5.07;;
32505;SDS011;18955;51.224;8.482;2023-09-08T09:54:45;15.02;;;6.15;;
32505;SDS011;18955;51.224;8.482;2023-09-08T09:57:13;22.10;;;6.07;;
32505;SDS011;18955;51.224;8.482;2023-09-08T09:59:40;11.00;;;5.07;;
32505;SDS011;18955;51.224;8.482;2023-09-08T10:02:11;21.25;;;5.80;;
32505;SDS011;18955;51.224;8.482;2023-09-08T10:04:41;26.90;;;5.78;;
32505;SDS011;18955;51.224;8.482;2023-09-08T10:07:08;23.05;;;5.93;;
32505;SDS011;18955;51.224;8.482;2023-09-08T10:09:35;8.60;;;4.68;;
32505;SDS011;18955;51.224;8.482;2023-09-08T10:12:03;21.00;;;6.43;;
32505;SDS011;18955;51.224;8.482;2023-09-08T10:14:31;11.93;;;5.10;;
32505;SDS011;18955;51.224;8.482;2023-09-08T10:16:59;20.83;;;5.60;;
32505;SDS011;18955;51.224;8.482;2023-09-08T10:19:27;23.80;;;5.35;;
32505;SDS011;18955;51.224;8.482;2023-09-08T10:27:09;12.18;;;5.13;;
32505;SDS011;18955;51.224;8.482;2023-09-08T10:29:37;12.75;;;5.10;;
32505;SDS011;18955;51.224;8.482;2023-09-08T10:32:05;17.23;;;5.22;;
32505;SDS011;18955;51.224;8.482;2023-09-08T10:34:32;15.65;;;5.10;;
32505;SDS011;18955;51.224;8.482;2023-09-08T10:37:00;28.48;;;6.60;;
32505;SDS011;18955;51.224;8.482;2023-09-08T10:39:27;12.32;;;4.68;;
32505;SDS011;18955;51.224;8.482;2023-09-08T10:42:40;16.23;;;5.57;;
32505;SDS011;18955;51.224;8.482;2023-09-08T10:45:00;24.17;;;6.65;;
32505;SDS011;18955;51.224;8.482;2023-09-08T10:47:39;16.50;;;4.88;;
32505;SDS011;18955;51.224;8.482;2023-09-08T10:50:18;12.85;;;4.82;;
32505;SDS011;18955;51.224;8.482;2023-09-08T10:52:45;17.15;;;5.10;;
32505;SDS011;18955;51.224;8.482;2023-09-08T10:55:36;21.52;;;5.18;;
32505;SDS011;18955;51.224;8.482;2023-09-08T10:58:04;11.73;;;5.38;;
32505;SDS011;18955;51.224;8.482;2023-09-08T11:00:42;15.35;;;4.82;;
32505;SDS011;18955;51.224;8.482;2023-09-08T11:03:09;15.65;;;5.05;;
32505;SDS011;18955;51.224;8.482;2023-09-08T11:08:02;23.23;;;5.47;;
32505;SDS011;18955;51.224;8.482;2023-09-08T11:10:29;9.15;;;4.35;;
32505;SDS011;18955;51.224;8.482;2023-09-08T11:12:57;23.20;;;5.65;;
32505;SDS011;18955;51.224;8.482;2023-09-08T11:15:25;10.95;;;5.00;;
32505;SDS011;18955;51.224;8.482;2023-09-08T11:17:51;13.50;;;5.05;;
32505;SDS011;18955;51.224;8.482;2023-09-08T11:20:25;11.00;;;4.68;;
32505;SDS011;18955;51.224;8.482;2023-09-08T11:22:52;17.08;;;5.45;;
32505;SDS011;18955;51.224;8.482;2023-09-08T11:25:20;21.48;;;5.43;;
32505;SDS011;18955;51.224;8.482;2023-09-08T11:27:46;15.70;;;5.20;;
32505;SDS011;18955;51.224;8.482;2023-09-08T11:30:15;10.02;;;4.93;;
32505;SDS011;18955;51.224;8.482;2023-09-08T11:32:43;16.40;;;5.43;;
32505;SDS011;18955;51.224;8.482;2023-09-08T11:35:09;8.10;;;4.53;;
32505;SDS011;18955;51.224;8.482;2023-09-08T11:37:36;10.05;;;5.25;;
32505;SDS011;18955;51.224;8.482;2023-09-08T11:40:04;12.23;;;5.18;;
32505;SDS011;18955;51.224;8.482;2023-09-08T11:42:38;9.48;;;4.78;;
32505;SDS011;18955;51.224;8.482;2023-09-08T11:47:42;16.05;;;4.93;;
32505;SDS011;18955;51.224;8.482;2023-09-08T11:50:09;14.30;;;4.85;;
32505;SDS011;18955;51.224;8.482;2023-09-08T11:52:37;11.15;;;4.90;;
32505;SDS011;18955;51.224;8.482;2023-09-08T11:55:04;7.43;;;4.45;;
32505;SDS011;18955;51.224;8.482;2023-09-08T11:57:31;17.83;;;4.97;;
32505;SDS011;18955;51.224;8.482;2023-09-08T12:02:25;14.20;;;4.60;;
32505;SDS011;18955;51.224;8.482;2023-09-08T12:04:53;13.85;;;4.93;;
32505;SDS011;18955;51.224;8.482;2023-09-08T12:07:19;19.13;;;4.88;;
32505;SDS011;18955;51.224;8.482;2023-09-08T12:09:46;15.30;;;4.82;;
32505;SDS011;18955;51.224;8.482;2023-09-08T12:12:12;14.20;;;4.60;;
32505;SDS011;18955;51.224;8.482;2023-09-08T12:14:42;11.70;;;5.00;;
32505;SDS011;18955;51.224;8.482;2023-09-08T12:17:08;12.80;;;4.47;;
32505;SDS011;18955;51.224;8.482;2023-09-08T12:19:35;7.50;;;4.43;;
32505;SDS011;18955;51.224;8.482;2023-09-08T12:22:03;9.90;;;4.55;;
32505;SDS011;18955;51.224;8.482;2023-09-08T12:24:46;13.38;;;4.80;;
32505;SDS011;18955;51.224;8.482;2023-09-08T12:27:25;30.08;;;5.28;;
32505;SDS011;18955;51.224;8.482;2023-09-08T12:32:26;12.07;;;5.32;;
32505;SDS011;18955;51.224;8.482;2023-09-08T12:34:55;8.30;;;4.50;;
32505;SDS011;18955;51.224;8.482;2023-09-08T12:37:22;6.90;;;4.72;;
32505;SDS011;18955;51.224;8.482;2023-09-08T12:39:49;23.65;;;4.82;;
32505;SDS011;18955;51.224;8.482;2023-09-08T12:44:43;14.03;;;4.53;;
32505;SDS011;18955;51.224;8.482;2023-09-08T12:47:10;16.73;;;4.75;;
32505;SDS011;18955;51.224;8.482;2023-09-08T12:49:39;13.70;;;4.95;;
32505;SDS011;18955;51.224;8.482;2023-09-08T12:52:05;10.07;;;4.90;;
32505;SDS011;18955;51.224;8.482;2023-09-08T12:54:32;10.30;;;4.18;;
32505;SDS011;18955;51.224;8.482;2023-09-08T12:56:58;8.07;;;4.60;;
32505;SDS011;18955;51.224;8.482;2023-09-08T12:59:24;6.05;;;4.97;;
32505;SDS011;18955;51.224;8.482;2023-09-08T13:01:50;7.85;;;4.20;;
32505;SDS011;18955;51.224;8.482;2023-09-08T13:04:17;5.93;;;4.45;;
32505;SDS011;18955;51.224;8.482;2023-09-08T13:06:44;8.98;;;4.30;;
32505;SDS011;18955;51.224;8.482;2023-09-08T13:09:11;6.50;;;4.10;;
32505;SDS011;18955;51.224;8.482;2023-09-08T13:11:37;12.18;;;4.88;;
32505;SDS011;18955;51.224;8.482;2023-09-08T13:14:03;9.93;;;4.75;;
32505;SDS011;18955;51.224;8.482;2023-09-08T13:16:29;8.40;;;4.30;;
32505;SDS011;18955;51.224;8.482;2023-09-08T13:18:55;9.95;;;4.05;;
32505;SDS011;18955;51.224;8.482;2023-09-08T13:21:22;13.63;;;4.50;;
32505;SDS011;18955;51.224;8.482;2023-09-08T13:23:48;9.98;;;3.95;;
32505;SDS011;18955;51.224;8.482;2023-09-08T13:26:14;8.25;;;4.22;;
32505;SDS011;18955;51.224;8.482;2023-09-08T13:28:40;10.75;;;4.07;;
32505;SDS011;18955;51.224;8.482;2023-09-08T13:31:06;8.88;;;4.30;;
32505;SDS011;18955;51.224;8.482;2023-09-08T13:33:35;11.82;;;4.72;;
32505;SDS011;18955;51.224;8.482;2023-09-08T13:36:02;4.38;;;3.90;;
32505;SDS011;18955;51.224;8.482;2023-09-08T13:38:28;11.10;;;4.72;;
32505;SDS011;18955;51.224;8.482;2023-09-08T13:40:54;6.10;;;4.03;;
32505;SDS011;18955;51.224;8.482;2023-09-08T13:43:20;13.32;;;4.47;;
32505;SDS011;18955;51.224;8.482;2023-09-08T13:45:47;26.25;;;4.53;;
32505;SDS011;18955;51.224;8.482;2023-09-08T13:48:13;17.25;;;4.85;;
32505;SDS011;18955;51.224;8.482;2023-09-08T13:50:39;6.78;;;4.22;;
32505;SDS011;18955;51.224;8.482;2023-09-08T13:53:06;8.18;;;4.43;;
32505;SDS011;18955;51.224;8.482;2023-09-08T13:55:32;8.50;;;4.35;;
32505;SDS011;18955;51.224;8.482;2023-09-08T13:57:58;9.57;;;4.60;;
32505;SDS011;18955;51.224;8.482;2023-09-08T14:00:24;8.35;;;4.72;;
32505;SDS011;18955;51.224;8.482;2023-09-08T14:02:51;8.98;;;4.38;;
32505;SDS011;18955;51.224;8.482;2023-09-08T14:05:17;12.60;;;4.75;;
32505;SDS011;18955;51.224;8.482;2023-09-08T14:07:43;5.22;;;3.97;;
32505;SDS011;18955;51.224;8.482;2023-09-08T14:10:09;9.43;;;4.20;;
32505;SDS011;18955;51.224;8.482;2023-09-08T14:12:35;8.48;;;4.32;;
32505;SDS011;18955;51.224;8.482;2023-09-08T14:15:02;7.32;;;4.50;;
32505;SDS011;18955;51.224;8.482;2023-09-08T14:17:29;7.47;;;4.53;;
32505;SDS011;18955;51.224;8.482;2023-09-08T14:19:56;6.60;;;4.60;;
32505;SDS011;18955;51.224;8.482;2023-09-08T14:22:22;6.15;;;4.57;;
32505;SDS011;18955;51.224;8.482;2023-09-08T14:24:48;5.30;;;4.60;;
32505;SDS011;18955;51.224;8.482;2023-09-08T14:27:14;4.93;;;3.60;;
32505;SDS011;18955;51.224;8.482;2023-09-08T14:29:40;9.32;;;4.68;;
32505;SDS011;18955;51.224;8.482;2023-09-08T14:32:07;7.13;;;4.07;;
32505;SDS011;18955;51.224;8.482;2023-09-08T14:34:33;12.85;;;5.28;;
32505;SDS011;18955;51.224;8.482;2023-09-08T14:36:59;5.40;;;3.60;;
32505;SDS011;18955;51.224;8.482;2023-09-08T14:39:25;6.22;;;4.15;;
32505;SDS011;18955;51.224;8.482;2023-09-08T14:41:51;6.45;;;4.45;;
32505;SDS011;18955;51.224;8.482;2023-09-08T14:44:19;8.15;;;3.97;;
32505;SDS011;18955;51.224;8.482;2023-09-08T14:46:48;7.72;;;4.28;;
32505;SDS011;18955;51.224;8.482;2023-09-08T14:49:14;9.57;;;4.10;;
32505;SDS011;18955;51.224;8.482;2023-09-08T14:51:41;6.93;;;3.95;;
32505;SDS011;18955;51.224;8.482;2023-09-08T14:54:07;4.90;;;4.40;;
32505;SDS011;18955;51.224;8.482;2023-09-08T14:56:33;5.20;;;3.80;;
32505;SDS011;18955;51.224;8.482;2023-09-08T14:58:59;12.25;;;4.22;;
32505;SDS011;18955;51.224;8.482;2023-09-08T15:01:26;5.72;;;3.88;;
32505;SDS011;18955;51.224;8.482;2023-09-08T15:03:52;8.18;;;4.15;;
32505;SDS011;18955;51.224;8.482;2023-09-08T15:06:20;8.45;;;3.58;;
32505;SDS011;18955;51.224;8.482;2023-09-08T15:08:46;6.70;;;4.15;;
32505;SDS011;18955;51.224;8.482;2023-09-08T15:11:13;8.05;;;4.10;;
32505;SDS011;18955;51.224;8.482;2023-09-08T15:13:39;9.07;;;4.22;;
32505;SDS011;18955;51.224;8.482;2023-09-08T15:16:06;7.15;;;3.67;;
32505;SDS011;18955;51.224;8.482;2023-09-08T15:18:32;7.25;;;4.22;;
32505;SDS011;18955;51.224;8.482;2023-09-08T15:20:58;7.88;;;4.38;;
32505;SDS011;18955;51.224;8.482;2023-09-08T15:23:24;4.35;;;3.90;;